createdAt,value
2018-05-03T00:02:08.830Z,22.30
2018-05-03T00:04:35.993Z,22.57
2018-05-03T00:07:02.362Z,22.27
2018-05-03T00:09:28.690Z,22.43
2018-05-03T00:11:55.036Z,21.07
2018-05-03T00:14:21.483Z,21.47
2018-05-03T00:16:47.870Z,22.20
2018-05-03T00:19:14.253Z,22.53
2018-05-03T00:21:40.602Z,21.43
2018-05-03T17:53:18.607Z,10.47
2018-05-03T17:55:45.020Z,10.90
2018-05-03T17:58:12.302Z,12.60
2018-05-03T18:00:38.830Z,10.40
2018-05-03T18:03:05.273Z,12.33
2018-05-03T18:05:31.725Z,12.07
2018-05-03T18:07:58.890Z,12.03
2018-05-03T18:10:26.125Z,12.70
2018-05-03T18:12:52.544Z,12.50
2018-05-03T18:15:18.984Z,11.63
2018-05-03T18:17:45.507Z,11.77
2018-05-03T18:20:11.953Z,12.60
2018-05-03T18:22:38.707Z,11.77
2018-05-03T18:25:06.014Z,12.03
2018-05-03T18:27:32.456Z,12.57
2018-05-03T18:29:58.911Z,12.63
2018-05-03T18:32:30.678Z,11.93
2018-05-03T18:34:57.148Z,13.33
2018-05-03T18:37:23.612Z,11.97
2018-05-03T18:39:50.793Z,11.13
2018-05-03T18:42:17.409Z,13.53
2018-05-03T18:44:43.915Z,11.87
2018-05-03T18:47:10.529Z,11.10
2018-05-03T18:49:37.074Z,15.70
2018-05-03T18:52:03.606Z,11.60
2018-05-03T18:54:30.057Z,12.13
2018-05-03T18:56:57.261Z,11.57
2018-05-03T18:59:23.737Z,8.67
2018-05-03T19:01:51.271Z,8.60
2018-05-03T19:04:19.588Z,11.60
2018-05-03T19:06:47.639Z,9.23
2018-05-03T19:09:14.103Z,10.97
2018-05-03T19:11:40.655Z,9.47
2018-05-03T19:14:07.237Z,11.20
2018-05-03T19:16:33.728Z,12.00
2018-05-03T19:19:00.197Z,12.37
2018-05-03T19:21:27.428Z,9.93
2018-05-03T19:23:53.969Z,11.13
2018-05-03T19:26:21.233Z,10.10
2018-05-03T19:28:48.456Z,9.07
2018-05-03T19:31:14.952Z,8.53
2018-05-03T19:33:41.849Z,8.43
2018-05-03T19:36:08.320Z,11.50
2018-05-03T19:38:34.928Z,8.50
2018-05-03T19:41:02.123Z,8.30
2018-05-03T19:43:28.755Z,8.80
2018-05-03T19:45:56.783Z,7.90
2018-05-03T19:48:23.977Z,7.37
2018-05-03T19:50:50.473Z,9.17
2018-05-03T19:53:18.016Z,8.50
2018-05-03T19:55:45.214Z,7.90
2018-05-03T19:58:11.735Z,8.77
2018-05-03T20:00:39.030Z,7.93
2018-05-03T20:03:05.622Z,10.43
2018-05-03T20:05:32.837Z,10.00
2018-05-03T20:07:59.327Z,8.27
2018-05-03T20:10:25.771Z,9.97
2018-05-03T20:12:52.448Z,9.33
2018-05-03T20:15:18.999Z,10.57
2018-05-03T20:17:45.440Z,9.27
2018-05-03T20:20:12.898Z,13.90
2018-05-03T20:22:40.538Z,16.93
2018-05-03T20:25:07.032Z,13.70
2018-05-03T20:27:33.488Z,13.37
2018-05-03T20:29:59.975Z,13.87
2018-05-03T20:32:26.894Z,11.40
2018-05-03T20:34:53.352Z,12.83
2018-05-03T20:37:19.894Z,12.10
2018-05-03T20:39:46.592Z,9.43
2018-05-03T20:42:13.136Z,11.67
2018-05-03T20:44:39.595Z,10.00
2018-05-03T20:47:06.128Z,10.53
2018-05-03T20:49:33.411Z,11.07
2018-05-03T20:51:59.910Z,12.90
2018-05-03T20:54:27.150Z,10.13
2018-05-03T20:56:53.638Z,12.83
2018-05-03T20:59:20.088Z,13.90
2018-05-03T21:01:46.668Z,11.80
2018-05-03T21:04:13.947Z,12.30
2018-05-03T21:06:40.434Z,12.20
2018-05-03T21:09:06.893Z,11.50
2018-05-03T21:11:34.108Z,11.17
2018-05-03T21:14:00.597Z,12.53
2018-05-03T21:16:27.086Z,12.47
2018-05-03T21:18:53.551Z,11.77
2018-05-03T21:21:20.741Z,12.43
2018-05-03T21:23:48.016Z,12.50
2018-05-03T21:26:14.803Z,11.80
2018-05-03T21:28:41.343Z,12.77
2018-05-03T21:31:07.830Z,12.50
2018-05-03T21:33:34.523Z,13.23
2018-05-03T21:36:01.876Z,11.90
2018-05-03T21:38:28.338Z,12.20
2018-05-03T21:40:54.791Z,12.80
2018-05-03T21:43:21.589Z,13.47
2018-05-03T21:45:48.063Z,12.87
2018-05-03T21:48:14.602Z,13.23
2018-05-03T21:50:42.061Z,11.60
2018-05-03T21:53:08.637Z,11.97
2018-05-03T21:55:35.151Z,11.53
2018-05-03T21:58:02.337Z,14.83
2018-05-03T22:00:28.705Z,12.40
2018-05-03T22:02:55.272Z,12.37
2018-05-03T22:05:22.029Z,12.47
2018-05-03T22:07:48.977Z,13.30
2018-05-03T22:10:16.117Z,15.83
2018-05-03T22:12:43.476Z,19.27
2018-05-03T22:15:09.904Z,17.33
2018-05-03T22:17:36.250Z,17.97
2018-05-03T22:20:03.434Z,18.40
2018-05-03T22:22:30.087Z,19.53
2018-05-03T22:24:56.421Z,18.67
2018-05-03T22:27:22.837Z,19.33
2018-05-03T22:29:49.441Z,19.47
2018-05-03T22:32:16.798Z,16.87
2018-05-03T22:34:44.149Z,19.00
2018-05-03T22:37:11.233Z,17.97
2018-05-03T22:39:37.851Z,19.17
2018-05-03T22:42:04.276Z,18.83
2018-05-03T22:44:30.622Z,18.20
2018-05-03T22:46:56.966Z,18.40
2018-05-03T22:49:23.386Z,18.40
2018-05-03T22:51:49.760Z,19.20
2018-05-03T22:54:16.126Z,18.57
2018-05-03T22:56:43.363Z,18.40
2018-05-03T22:59:09.715Z,19.83
2018-05-03T23:01:36.787Z,18.57
2018-05-03T23:04:03.159Z,17.20
2018-05-03T23:06:29.526Z,16.57
2018-05-03T23:08:55.902Z,16.30
2018-05-03T23:11:23.002Z,16.20
2018-05-03T23:13:50.190Z,16.43
2018-05-03T23:16:17.286Z,16.77
2018-05-03T23:18:44.534Z,21.03
2018-05-03T23:21:10.898Z,17.83
2018-05-03T23:23:37.302Z,19.40
2018-05-03T23:26:03.653Z,20.03
2018-05-03T23:28:30.066Z,18.63
2018-05-03T23:30:56.386Z,18.63
2018-05-03T23:33:22.754Z,18.13
2018-05-03T23:35:49.127Z,17.97
2018-05-03T23:38:15.473Z,19.03
2018-05-03T23:40:41.974Z,20.37
2018-05-03T23:43:08.348Z,20.17
2018-05-03T23:45:34.693Z,19.60
2018-05-03T23:48:01.077Z,19.53
2018-05-03T23:50:27.418Z,18.53
2018-05-03T23:52:53.993Z,20.73
2018-05-03T23:55:21.120Z,21.17
2018-05-03T23:57:47.450Z,20.20
